createdAt,value
2018-11-23T00:00:32.949Z,49.47
2018-11-23T00:03:03.230Z,46.87
2018-11-23T00:05:32.377Z,49.13
2018-11-23T00:08:01.494Z,46.33
2018-11-23T00:10:32.063Z,47.30
2018-11-23T00:13:01.203Z,46.70
2018-11-23T00:15:30.580Z,46.50
2018-11-23T00:17:59.761Z,48.77
2018-11-23T00:20:29.777Z,47.27
2018-11-23T00:22:58.855Z,46.47
2018-11-23T00:25:28.399Z,47.53
2018-11-23T00:27:57.971Z,46.53
2018-11-23T00:30:28.834Z,47.30
2018-11-23T00:32:58.029Z,48.80
2018-11-23T00:35:28.523Z,47.17
2018-11-23T00:37:57.622Z,47.70
2018-11-23T00:40:27.980Z,48.07
2018-11-23T00:42:57.350Z,48.63
2018-11-23T00:45:26.559Z,48.67
2018-11-23T00:47:56.479Z,50.37
2018-11-23T00:50:26.691Z,51.63
2018-11-23T00:52:56.834Z,49.47
2018-11-23T00:55:27.136Z,49.53
2018-11-23T00:57:56.260Z,48.87
2018-11-23T01:00:29.550Z,48.70
2018-11-23T01:02:59.262Z,49.03
2018-11-23T01:05:28.539Z,49.03
2018-11-23T01:07:57.758Z,50.30
2018-11-23T01:10:28.386Z,48.87
2018-11-23T01:12:58.087Z,49.87
2018-11-23T01:15:28.524Z,47.27
2018-11-23T01:17:57.653Z,51.40
2018-11-23T01:20:28.144Z,50.20
2018-11-23T01:22:58.150Z,48.30
2018-11-23T01:25:28.132Z,49.47
2018-11-23T01:27:57.637Z,45.40
2018-11-23T01:30:28.329Z,47.47
2018-11-23T01:32:57.619Z,49.63
2018-11-23T01:35:26.992Z,47.63
2018-11-23T01:37:56.313Z,48.57
2018-11-23T01:40:26.766Z,45.67
2018-11-23T01:42:56.261Z,44.20
2018-11-23T01:45:25.497Z,46.43
2018-11-23T01:47:54.695Z,49.53
2018-11-23T01:50:26.309Z,45.97
2018-11-23T01:52:55.453Z,47.33
2018-11-23T01:55:25.460Z,45.67
2018-11-23T01:57:54.597Z,45.33
2018-11-23T02:00:25.071Z,44.93
2018-11-23T02:02:55.679Z,45.00
2018-11-23T02:05:25.117Z,45.33
2018-11-23T02:07:54.468Z,42.30
2018-11-23T02:10:23.881Z,45.00
2018-11-23T02:12:52.946Z,43.63
2018-11-23T02:15:22.821Z,43.13
2018-11-23T02:17:52.267Z,41.87
2018-11-23T02:20:22.217Z,41.93
2018-11-23T02:22:51.337Z,41.10
2018-11-23T02:25:20.704Z,42.67
2018-11-23T02:27:49.805Z,41.27
2018-11-23T02:30:21.458Z,42.07
2018-11-23T02:32:50.537Z,39.30
2018-11-23T02:35:19.684Z,39.57
2018-11-23T02:37:48.932Z,39.63
2018-11-23T02:40:19.084Z,40.27
2018-11-23T02:42:48.248Z,41.07
2018-11-23T02:45:19.655Z,38.27
2018-11-23T02:47:49.122Z,39.57
2018-11-23T02:50:18.222Z,38.77
2018-11-23T02:52:47.690Z,38.70
2018-11-23T02:55:17.851Z,38.20
2018-11-23T02:57:46.936Z,39.37
2018-11-23T03:00:19.041Z,37.87
2018-11-23T03:02:48.122Z,39.97
2018-11-23T03:05:18.872Z,38.67
2018-11-23T03:07:47.976Z,38.43
2018-11-23T03:10:18.063Z,39.93
2018-11-23T03:12:47.942Z,40.87
2018-11-23T03:15:18.627Z,39.57
2018-11-23T03:17:48.177Z,40.20
2018-11-23T03:20:18.626Z,39.93
2018-11-23T03:22:47.775Z,39.43
2018-11-23T03:25:17.242Z,38.93
2018-11-23T03:27:46.335Z,41.00
2018-11-23T03:30:18.568Z,41.57
2018-11-23T03:32:48.818Z,40.43
2018-11-23T03:35:18.432Z,40.50
2018-11-23T03:37:47.694Z,39.50
2018-11-23T03:40:16.860Z,41.63
2018-11-23T03:42:45.984Z,39.80
2018-11-23T03:45:15.875Z,40.13
2018-11-23T03:47:45.524Z,42.07
2018-11-23T03:50:15.561Z,41.27
2018-11-23T03:52:45.186Z,41.47
2018-11-23T03:55:14.460Z,39.77
2018-11-23T03:57:43.555Z,42.40
2018-11-23T04:00:17.238Z,40.23
2018-11-23T04:02:44.540Z,41.47
2018-11-23T04:05:13.682Z,41.57
2018-11-23T04:07:42.824Z,40.67
2018-11-23T04:10:13.430Z,39.80
2018-11-23T04:12:43.045Z,37.33
2018-11-23T04:15:12.806Z,34.47
2018-11-23T04:17:42.453Z,29.87
2018-11-23T04:20:13.321Z,37.20
2018-11-23T04:22:43.019Z,37.63
2018-11-23T04:25:12.711Z,39.27
2018-11-23T04:27:42.418Z,40.03
2018-11-23T04:30:13.967Z,40.83
2018-11-23T04:32:44.093Z,40.70
2018-11-23T04:35:14.403Z,38.67
2018-11-23T04:37:44.333Z,36.90
2018-11-23T04:40:14.381Z,39.27
2018-11-23T04:42:43.757Z,36.63
2018-11-23T04:45:13.301Z,36.57
2018-11-23T04:47:42.563Z,38.60
2018-11-23T04:50:13.356Z,36.63
2018-11-23T04:52:42.684Z,35.13
2018-11-23T04:55:12.639Z,35.40
2018-11-23T04:57:42.329Z,35.77
2018-11-23T05:00:13.819Z,30.67
2018-11-23T05:02:43.387Z,31.70
2018-11-23T05:05:13.327Z,30.60
2018-11-23T05:07:43.718Z,30.80
2018-11-23T05:10:14.264Z,29.60
2018-11-23T05:12:43.332Z,30.40
2018-11-23T05:15:13.935Z,28.30
2018-11-23T05:17:43.469Z,27.37
2018-11-23T05:20:13.429Z,27.43
2018-11-23T05:22:42.893Z,29.10
2018-11-23T05:25:13.486Z,28.27
2018-11-23T05:27:42.616Z,28.47
2018-11-23T05:30:16.360Z,27.07
2018-11-23T05:32:45.459Z,29.33
2018-11-23T05:35:15.946Z,28.63
2018-11-23T05:37:45.069Z,30.30
2018-11-23T05:40:16.539Z,31.77
2018-11-23T05:42:45.704Z,32.57
2018-11-23T05:45:16.262Z,32.97
2018-11-23T05:47:45.654Z,32.33
2018-11-23T05:50:16.813Z,32.87
2018-11-23T05:52:46.063Z,31.80
2018-11-23T05:55:16.137Z,31.77
2018-11-23T05:57:45.330Z,31.90
2018-11-23T06:00:19.137Z,32.07
2018-11-23T06:02:48.250Z,32.70
2018-11-23T06:05:17.714Z,32.43
2018-11-23T06:07:46.889Z,29.87
2018-11-23T06:10:17.244Z,27.97
2018-11-23T06:12:46.442Z,28.97
2018-11-23T06:15:18.450Z,29.87
2018-11-23T06:17:47.993Z,27.40
2018-11-23T06:20:19.188Z,26.97
2018-11-23T06:22:49.152Z,27.27
2018-11-23T06:25:31.502Z,27.77
2018-11-23T06:28:00.613Z,27.07
2018-11-23T06:30:29.936Z,27.30
2018-11-23T06:33:10.418Z,27.40
2018-11-23T06:35:39.983Z,27.40
2018-11-23T06:38:09.109Z,27.23
2018-11-23T06:40:38.444Z,30.70
2018-11-23T06:43:07.538Z,31.60
2018-11-23T06:45:39.144Z,28.60
2018-11-23T06:48:09.204Z,30.40
2018-11-23T06:50:38.486Z,29.97
2018-11-23T06:53:08.099Z,30.40
2018-11-23T06:55:37.219Z,30.53
2018-11-23T06:58:06.424Z,28.50
2018-11-23T07:00:36.109Z,30.30
2018-11-23T07:03:05.297Z,27.33
2018-11-23T07:05:34.724Z,25.77
2018-11-23T07:08:04.003Z,28.73
2018-11-23T07:10:33.328Z,28.03
2018-11-23T07:13:02.420Z,29.77
2018-11-23T07:15:31.625Z,28.30
2018-11-23T07:18:00.665Z,28.03
2018-11-23T07:20:29.813Z,26.93
2018-11-23T07:22:58.913Z,25.43
2018-11-23T07:25:28.080Z,26.53
2018-11-23T07:27:57.199Z,28.10
2018-11-23T07:30:27.635Z,25.00
2018-11-23T07:32:57.033Z,23.47
2018-11-23T07:35:26.441Z,23.33
2018-11-23T07:37:55.530Z,23.43
2018-11-23T07:40:40.910Z,23.87
2018-11-23T07:43:10.145Z,26.07
2018-11-23T07:45:39.467Z,28.57
2018-11-23T07:48:08.996Z,26.13
2018-11-23T07:50:38.660Z,27.20
2018-11-23T07:53:08.286Z,27.73
2018-11-23T07:55:37.876Z,27.27
2018-11-23T07:58:08.146Z,26.83
2018-11-23T08:00:38.089Z,25.50
2018-11-23T08:03:07.252Z,27.27
2018-11-23T08:05:36.798Z,26.07
2018-11-23T08:08:06.395Z,26.73
2018-11-23T08:10:35.168Z,27.20
2018-11-23T08:13:04.515Z,26.30
2018-11-23T08:15:33.752Z,28.00
2018-11-23T08:18:02.950Z,28.13
2018-11-23T08:20:32.369Z,28.93
2018-11-23T08:23:01.608Z,28.23
2018-11-23T08:25:30.790Z,29.37
2018-11-23T08:27:59.902Z,28.97
2018-11-23T08:30:30.193Z,31.47
2018-11-23T08:32:59.576Z,30.27
2018-11-23T08:35:29.334Z,28.53
2018-11-23T08:37:58.441Z,28.70
2018-11-23T08:40:28.163Z,26.50
2018-11-23T08:42:57.480Z,27.47
2018-11-23T08:45:27.440Z,28.27
2018-11-23T08:47:56.681Z,29.57
2018-11-23T08:50:27.516Z,29.93
2018-11-23T08:52:56.701Z,32.03
2018-11-23T08:55:25.971Z,30.43
2018-11-23T08:57:55.093Z,30.73
2018-11-23T09:00:25.497Z,30.23
2018-11-23T09:02:56.077Z,29.10
2018-11-23T09:05:25.231Z,26.97
2018-11-23T09:07:55.304Z,27.27
2018-11-23T09:10:28.320Z,28.53
2018-11-23T09:12:58.945Z,28.33
2018-11-23T09:15:28.222Z,26.37
2018-11-23T09:17:57.472Z,26.33
2018-11-23T09:20:26.675Z,26.43
2018-11-23T09:22:55.793Z,25.53
2018-11-23T09:25:25.534Z,27.57
2018-11-23T09:27:54.697Z,27.60
2018-11-23T09:30:25.238Z,28.90
2018-11-23T09:32:55.296Z,27.40
2018-11-23T09:35:25.010Z,26.30
2018-11-23T09:37:54.286Z,26.87
2018-11-23T09:40:25.252Z,29.67
2018-11-23T09:42:54.789Z,29.43
2018-11-23T09:45:32.140Z,29.27
2018-11-23T09:48:02.578Z,27.03
2018-11-23T09:50:31.994Z,26.50
2018-11-23T09:53:02.371Z,26.63
2018-11-23T09:55:32.952Z,28.57
2018-11-23T09:58:02.140Z,28.07
2018-11-23T10:00:33.281Z,27.53
2018-11-23T10:03:02.898Z,27.27
2018-11-23T10:05:33.109Z,26.67
2018-11-23T10:08:03.626Z,27.53
2018-11-23T10:10:33.206Z,27.87
2018-11-23T10:13:02.396Z,26.63
2018-11-23T10:15:32.229Z,28.03
2018-11-23T10:18:02.216Z,26.97
2018-11-23T10:20:31.828Z,25.87
2018-11-23T10:23:00.944Z,26.87
2018-11-23T10:25:31.578Z,26.43
2018-11-23T10:28:00.733Z,26.30
2018-11-23T10:30:31.206Z,25.33
2018-11-23T10:33:01.629Z,27.90
2018-11-23T10:35:31.048Z,29.20
2018-11-23T10:38:01.676Z,29.83
2018-11-23T10:40:33.681Z,26.97
2018-11-23T10:43:02.774Z,27.43
2018-11-23T10:45:33.373Z,26.77
2018-11-23T10:48:04.002Z,28.83
2018-11-23T10:50:35.061Z,28.10
2018-11-23T10:53:04.617Z,27.67
2018-11-23T10:55:34.755Z,27.57
2018-11-23T10:58:03.936Z,25.23
2018-11-23T11:00:38.448Z,28.70
2018-11-23T11:03:13.721Z,27.07
2018-11-23T11:05:48.311Z,27.53
2018-11-23T11:08:17.486Z,29.20
2018-11-23T11:10:46.588Z,29.00
2018-11-23T11:13:15.734Z,28.53
2018-11-23T11:15:44.943Z,29.63
2018-11-23T11:18:14.022Z,30.03
2018-11-23T11:20:43.239Z,29.77
2018-11-23T11:23:12.334Z,28.73
2018-11-23T11:25:41.705Z,29.20
2018-11-23T11:28:10.793Z,29.87
2018-11-23T11:30:40.127Z,30.27
2018-11-23T11:33:09.281Z,31.20
2018-11-23T11:35:38.465Z,29.73
2018-11-23T11:38:07.627Z,28.80
2018-11-23T11:40:36.777Z,29.33
2018-11-23T11:43:05.909Z,28.07
2018-11-23T11:45:35.052Z,29.00
2018-11-23T11:48:04.231Z,28.00
2018-11-23T11:50:33.398Z,30.53
2018-11-23T11:53:02.600Z,30.80
2018-11-23T11:55:31.815Z,30.70
2018-11-23T11:58:01.542Z,31.87
2018-11-23T12:00:30.698Z,32.57
2018-11-23T12:03:00.032Z,32.20
2018-11-23T12:05:29.226Z,31.37
2018-11-23T12:07:58.353Z,32.80
2018-11-23T12:10:27.548Z,30.00
2018-11-23T12:12:56.788Z,30.40
2018-11-23T12:15:26.218Z,28.73
2018-11-23T12:17:55.387Z,30.03
2018-11-23T12:20:25.642Z,29.73
2018-11-23T12:22:54.742Z,29.47
2018-11-23T12:25:24.208Z,30.80
2018-11-23T12:27:53.514Z,30.03
2018-11-23T12:30:23.361Z,28.97
2018-11-23T12:32:53.544Z,29.00
2018-11-23T12:35:23.285Z,29.50
2018-11-23T12:37:52.546Z,28.17
2018-11-23T12:40:21.998Z,27.80
2018-11-23T12:42:51.097Z,28.20
2018-11-23T12:45:21.646Z,27.87
2018-11-23T12:47:51.361Z,27.60
2018-11-23T12:50:21.988Z,28.60
2018-11-23T12:52:51.763Z,26.07
2018-11-23T12:55:21.175Z,27.43
2018-11-23T12:57:50.365Z,26.57
2018-11-23T13:00:21.937Z,27.20
2018-11-23T13:02:52.533Z,26.67
2018-11-23T13:05:22.449Z,27.07
2018-11-23T13:07:52.339Z,27.10
2018-11-23T13:10:22.231Z,27.93
2018-11-23T13:12:51.578Z,27.30
2018-11-23T13:15:20.743Z,27.13
2018-11-23T13:17:49.920Z,26.43
2018-11-23T13:20:19.264Z,29.00
2018-11-23T13:22:49.648Z,27.20
2018-11-23T13:25:20.243Z,28.87
2018-11-23T13:27:49.355Z,30.13
2018-11-23T13:30:21.899Z,27.60
2018-11-23T13:32:51.197Z,28.53
2018-11-23T13:35:20.725Z,28.27
2018-11-23T13:37:49.956Z,28.67
2018-11-23T13:40:23.531Z,27.33
2018-11-23T13:42:54.659Z,27.47
2018-11-23T13:45:25.317Z,28.10
2018-11-23T13:47:54.536Z,27.80
2018-11-23T13:50:24.414Z,28.80
2018-11-23T13:52:55.202Z,28.20
2018-11-23T13:55:24.674Z,28.27
2018-11-23T13:57:54.047Z,28.20
2018-11-23T14:00:25.818Z,26.60
2018-11-23T14:02:54.900Z,27.47
2018-11-23T14:05:26.672Z,29.50
2018-11-23T14:07:57.308Z,30.47
2018-11-23T14:10:27.180Z,29.97
2018-11-23T14:12:56.332Z,28.57
2018-11-23T14:15:27.263Z,29.00
2018-11-23T14:17:57.542Z,30.80
2018-11-23T14:20:28.010Z,31.23
2018-11-23T14:22:57.342Z,30.30
2018-11-23T14:25:27.995Z,30.43
2018-11-23T14:27:57.418Z,31.07
2018-11-23T14:30:28.088Z,31.47
2018-11-23T14:32:57.658Z,30.37
2018-11-23T14:35:28.097Z,29.17
2018-11-23T14:37:58.280Z,29.23
2018-11-23T14:40:27.413Z,30.73
2018-11-23T14:42:57.139Z,30.87
2018-11-23T14:45:33.109Z,30.70
2018-11-23T14:48:03.804Z,32.13
2018-11-23T14:50:34.324Z,31.27
2018-11-23T14:53:03.551Z,32.10
2018-11-23T14:55:32.863Z,33.07
2018-11-23T14:58:01.969Z,32.37
2018-11-23T15:00:33.934Z,31.80
2018-11-23T15:03:03.970Z,31.13
2018-11-23T15:05:33.335Z,33.90
2018-11-23T15:08:02.569Z,33.20
2018-11-23T15:10:33.287Z,31.97
2018-11-23T15:13:03.457Z,33.47
2018-11-23T15:15:34.165Z,32.17
2018-11-23T15:18:03.390Z,30.30
2018-11-23T15:20:35.280Z,31.93
2018-11-23T15:23:08.322Z,32.70
2018-11-23T15:25:37.470Z,31.17
2018-11-23T15:28:07.454Z,31.63
2018-11-23T15:30:37.409Z,31.07
2018-11-23T15:33:07.297Z,31.57
2018-11-23T15:35:37.671Z,33.27
2018-11-23T15:38:10.226Z,32.80
2018-11-23T15:40:37.655Z,32.60
2018-11-23T15:43:08.362Z,32.60
2018-11-23T15:45:38.012Z,34.40
2018-11-23T15:48:08.320Z,33.50
2018-11-23T15:50:39.590Z,35.57
2018-11-23T15:53:10.188Z,34.10
2018-11-23T15:55:39.949Z,37.07
2018-11-23T15:58:10.742Z,36.57
2018-11-23T16:00:41.199Z,36.90
2018-11-23T16:03:11.686Z,37.33
2018-11-23T16:05:40.956Z,38.07
2018-11-23T16:08:11.708Z,33.17
2018-11-23T16:10:41.056Z,33.87
2018-11-23T16:13:11.708Z,36.77
2018-11-23T16:15:40.729Z,35.67
2018-11-23T16:18:10.372Z,37.07
2018-11-23T16:20:41.369Z,36.57
2018-11-23T16:23:12.031Z,36.33
2018-11-23T16:25:41.759Z,35.43
2018-11-23T16:28:11.548Z,38.13
2018-11-23T16:30:42.416Z,36.07
2018-11-23T16:33:13.053Z,34.07
2018-11-23T16:35:42.760Z,38.03
2018-11-23T16:38:14.589Z,42.13
2018-11-23T16:40:45.724Z,46.93
2018-11-23T16:43:15.664Z,50.00
2018-11-23T16:45:45.479Z,51.07
2018-11-23T16:48:15.266Z,50.23
2018-11-23T16:50:44.910Z,46.73
2018-11-23T16:53:14.015Z,44.63
2018-11-23T16:55:43.148Z,41.43
2018-11-23T16:58:13.204Z,38.07
2018-11-23T17:00:43.638Z,34.87
2018-11-23T17:03:14.559Z,30.80
2018-11-23T17:05:47.256Z,34.57
2018-11-23T17:08:16.405Z,32.53
2018-11-23T17:10:45.765Z,32.10
2018-11-23T17:13:14.999Z,28.53
2018-11-23T17:15:44.163Z,31.50
2018-11-23T17:18:13.806Z,33.30
2018-11-23T17:20:42.954Z,32.90
2018-11-23T17:23:12.871Z,31.63
2018-11-23T17:25:42.170Z,33.37
2018-11-23T17:28:11.970Z,35.10
2018-11-23T17:30:41.495Z,34.93
2018-11-23T17:33:10.614Z,31.97
2018-11-23T17:35:39.731Z,33.43
2018-11-23T17:38:08.800Z,31.43
2018-11-23T17:40:39.408Z,31.80
2018-11-23T17:43:08.962Z,32.43
2018-11-23T17:45:38.866Z,32.60
2018-11-23T17:48:08.196Z,33.27
2018-11-23T17:50:38.310Z,35.40
2018-11-23T17:53:07.443Z,38.40
2018-11-23T17:55:36.791Z,39.30
2018-11-23T17:58:06.031Z,36.07
2018-11-23T18:00:39.091Z,37.73
2018-11-23T18:03:05.588Z,39.87
2018-11-23T18:05:35.354Z,39.37
2018-11-23T18:08:05.380Z,37.53
2018-11-23T18:10:35.404Z,38.57
2018-11-23T18:13:05.033Z,39.27
2018-11-23T18:15:35.204Z,37.50
2018-11-23T18:18:05.345Z,37.33
2018-11-23T18:20:35.411Z,38.37
2018-11-23T18:23:06.100Z,39.23
2018-11-23T18:25:38.302Z,39.43
2018-11-23T18:28:07.458Z,40.03
2018-11-23T18:30:37.407Z,40.37
2018-11-23T18:33:07.746Z,38.33
2018-11-23T18:35:37.166Z,39.07
2018-11-23T18:38:06.482Z,41.03
2018-11-23T18:40:37.310Z,39.83
2018-11-23T18:43:05.552Z,42.13
2018-11-23T18:45:34.819Z,43.27
2018-11-23T18:48:04.019Z,43.97
2018-11-23T18:50:33.468Z,43.93
2018-11-23T18:53:02.738Z,46.33
2018-11-23T18:55:31.899Z,45.97
2018-11-23T18:58:01.192Z,47.97
2018-11-23T19:00:30.455Z,43.27
2018-11-23T19:02:59.635Z,43.63
2018-11-23T19:05:29.243Z,44.83
2018-11-23T19:07:59.031Z,44.90
2018-11-23T19:10:28.149Z,44.97
2018-11-23T19:12:58.871Z,45.50
2018-11-23T19:15:28.086Z,45.60
2018-11-23T19:17:57.239Z,44.20
2018-11-23T19:20:26.683Z,43.83
2018-11-23T19:22:56.016Z,46.83
2018-11-23T19:25:25.994Z,43.30
2018-11-23T19:27:55.146Z,41.37
2018-11-23T19:30:28.531Z,44.67
2018-11-23T19:32:54.542Z,44.57
2018-11-23T19:35:23.962Z,47.30
2018-11-23T19:37:53.160Z,44.80
2018-11-23T19:40:22.518Z,44.77
2018-11-23T19:42:51.620Z,41.80
2018-11-23T19:45:20.967Z,43.47
2018-11-23T19:47:50.108Z,43.93
2018-11-23T19:50:19.556Z,41.97
2018-11-23T19:52:48.900Z,44.43
2018-11-23T19:55:18.520Z,40.63
2018-11-23T19:57:47.612Z,44.37
2018-11-23T20:00:18.158Z,43.80
2018-11-23T20:02:47.302Z,42.53
2018-11-23T20:05:16.671Z,41.53
2018-11-23T20:07:46.543Z,40.07
2018-11-23T20:10:16.918Z,42.23
2018-11-23T20:12:47.051Z,47.70
2018-11-23T20:15:18.289Z,44.90
2018-11-23T20:17:47.949Z,42.97
2018-11-23T20:20:17.689Z,41.97
2018-11-23T20:22:47.982Z,43.53
2018-11-23T20:25:18.416Z,41.57
2018-11-23T20:27:48.729Z,42.60
2018-11-23T20:30:18.890Z,41.63
2018-11-23T20:32:48.242Z,45.80
2018-11-23T20:35:20.633Z,51.37
2018-11-23T20:37:49.801Z,44.93
2018-11-23T20:40:20.255Z,44.00
2018-11-23T20:42:49.391Z,40.80
2018-11-23T20:45:18.869Z,44.90
2018-11-23T20:47:47.997Z,43.73
2018-11-23T20:50:17.868Z,41.73
2018-11-23T20:52:47.152Z,43.57
2018-11-23T20:55:19.163Z,44.80
2018-11-23T20:57:48.407Z,39.37
2018-11-23T21:00:19.660Z,44.50
2018-11-23T21:02:49.834Z,44.00
2018-11-23T21:05:20.024Z,45.20
2018-11-23T21:07:49.385Z,46.47
2018-11-23T21:10:20.731Z,44.63
2018-11-23T21:12:49.677Z,44.07
2018-11-23T21:15:26.211Z,46.60
2018-11-23T21:17:55.933Z,44.63
2018-11-23T21:20:25.092Z,47.03
2018-11-23T21:22:54.344Z,45.77
2018-11-23T21:25:23.556Z,46.43
2018-11-23T21:27:52.674Z,46.13
2018-11-23T21:30:22.972Z,47.63
2018-11-23T21:32:53.286Z,46.57
2018-11-23T21:35:23.600Z,51.03
2018-11-23T21:37:52.714Z,50.00
2018-11-23T21:40:22.233Z,46.80
2018-11-23T21:42:51.395Z,49.67
2018-11-23T21:45:21.038Z,50.00
2018-11-23T21:47:50.313Z,46.10
2018-11-23T21:50:25.155Z,49.50
2018-11-23T21:52:49.698Z,49.03
2018-11-23T21:55:24.254Z,48.40
2018-11-23T21:57:54.709Z,47.27
2018-11-23T22:00:24.182Z,48.13
2018-11-23T22:04:22.748Z,49.77
2018-11-23T22:06:51.881Z,47.93
2018-11-23T22:09:21.052Z,46.27
2018-11-23T22:11:52.461Z,47.20
2018-11-23T22:14:19.509Z,48.27
2018-11-23T22:16:48.856Z,47.47
2018-11-23T22:19:17.949Z,45.63
2018-11-23T22:21:47.091Z,47.93
2018-11-23T22:24:16.221Z,48.10
2018-11-23T22:26:45.517Z,47.53
2018-11-23T22:29:14.637Z,48.33
2018-11-23T22:31:44.379Z,48.43
2018-11-23T22:34:13.515Z,45.43
2018-11-23T22:36:42.901Z,44.30
2018-11-23T22:39:12.013Z,45.90
2018-11-23T22:41:41.392Z,48.33
2018-11-23T22:44:10.549Z,49.23
2018-11-23T22:46:39.697Z,49.73
2018-11-23T22:49:08.793Z,45.57
2018-11-23T22:51:38.157Z,45.60
2018-11-23T22:54:07.309Z,47.10
2018-11-23T22:56:37.237Z,45.40
2018-11-23T22:59:06.357Z,43.27
2018-11-23T23:01:35.795Z,42.13
2018-11-23T23:04:05.069Z,42.60
2018-11-23T23:06:34.342Z,40.30
2018-11-23T23:09:04.588Z,42.43
2018-11-23T23:11:34.012Z,40.17
2018-11-23T23:14:03.078Z,41.47
2018-11-23T23:16:32.518Z,40.43
2018-11-23T23:19:01.643Z,42.83
2018-11-23T23:21:30.780Z,43.20
2018-11-23T23:23:59.953Z,44.43
2018-11-23T23:26:29.406Z,42.87
2018-11-23T23:28:58.540Z,45.17
2018-11-23T23:31:27.646Z,42.83
2018-11-23T23:33:56.686Z,42.50
2018-11-23T23:36:25.956Z,42.13
2018-11-23T23:38:55.054Z,43.17
2018-11-23T23:41:24.209Z,42.47
2018-11-23T23:43:53.458Z,42.87
2018-11-23T23:46:22.672Z,44.90
2018-11-23T23:48:51.860Z,42.27
2018-11-23T23:51:21.012Z,41.53
2018-11-23T23:53:50.151Z,41.93
2018-11-23T23:56:19.486Z,40.30
2018-11-23T23:58:48.613Z,39.40
